createdAt,value
2019-03-01T00:01:54.322Z,113.05
2019-03-01T00:04:33.297Z,108.10
2019-03-01T00:07:40.042Z,103.78
2019-03-01T00:10:31.153Z,107.47
2019-03-01T00:13:04.275Z,102.25
2019-03-01T00:15:37.362Z,112.17
2019-03-01T00:18:25.657Z,106.63
2019-03-01T00:20:59.122Z,105.92
2019-03-01T00:23:32.251Z,99.15
2019-03-01T00:26:26.750Z,105.43
2019-03-01T00:29:22.847Z,103.67
2019-03-01T00:31:55.931Z,114.22
2019-03-01T00:34:35.045Z,110.48
2019-03-01T00:37:11.304Z,104.87
2019-03-01T00:39:47.490Z,111.83
2019-03-01T00:42:26.755Z,100.10
2019-03-01T00:44:57.020Z,112.47
2019-03-01T00:47:27.276Z,113.25
2019-03-01T00:49:57.371Z,104.67
2019-03-01T00:52:27.537Z,107.45
2019-03-01T00:54:57.613Z,104.00
2019-03-01T00:57:27.698Z,103.85
2019-03-01T00:59:57.789Z,110.52
2019-03-01T01:02:28.058Z,115.37
2019-03-01T01:04:58.281Z,106.67
2019-03-01T01:07:28.453Z,106.97
2019-03-01T01:09:58.540Z,100.60
2019-03-01T01:12:28.706Z,106.67
2019-03-01T01:14:59.405Z,105.12
2019-03-01T01:17:29.547Z,109.05
2019-03-01T01:19:59.754Z,102.62
2019-03-01T01:22:29.764Z,111.55
2019-03-01T01:24:59.803Z,108.05
2019-03-01T01:27:29.983Z,105.65
2019-03-01T01:30:00.089Z,109.52
2019-03-01T01:32:30.755Z,113.72
2019-03-01T01:35:00.826Z,110.35
2019-03-01T01:37:31.099Z,110.32
2019-03-01T01:40:01.214Z,107.30
2019-03-01T01:42:31.727Z,105.27
2019-03-01T01:45:01.884Z,105.58
2019-03-01T01:47:32.059Z,103.45
2019-03-01T01:50:02.229Z,111.40
2019-03-01T01:52:32.325Z,103.97
2019-03-01T01:55:02.596Z,110.12
2019-03-01T01:57:32.811Z,107.15
2019-03-01T02:00:02.906Z,104.00
2019-03-01T02:02:34.335Z,115.47
2019-03-01T02:05:05.731Z,111.60
2019-03-01T02:07:36.411Z,112.08
2019-03-01T02:10:08.623Z,114.22
2019-03-01T02:12:38.860Z,114.60
2019-03-01T02:15:12.734Z,114.80
2019-03-01T02:17:42.950Z,110.32
2019-03-01T02:20:13.976Z,105.17
2019-03-01T02:22:44.119Z,110.57
2019-03-01T02:25:14.545Z,109.30
2019-03-01T02:27:44.958Z,109.10
2019-03-01T02:30:17.995Z,112.42
2019-03-01T02:32:48.245Z,123.10
2019-03-01T02:35:19.449Z,112.25
2019-03-01T02:37:49.627Z,108.75
2019-03-01T02:40:19.762Z,113.00
2019-03-01T02:42:50.166Z,117.10
2019-03-01T02:45:21.522Z,106.70
2019-03-01T02:47:52.146Z,108.78
2019-03-01T02:50:22.902Z,110.70
2019-03-01T02:52:53.050Z,110.78
2019-03-01T02:55:23.529Z,109.22
2019-03-01T02:57:53.874Z,108.60
2019-03-01T03:00:31.010Z,112.05
2019-03-01T03:03:02.299Z,108.85
2019-03-01T03:05:34.078Z,105.63
2019-03-01T03:08:06.011Z,113.42
2019-03-01T03:10:36.247Z,105.50
2019-03-01T03:13:07.626Z,112.88
2019-03-01T03:15:39.489Z,108.00
2019-03-01T03:18:09.594Z,106.50
2019-03-01T03:20:40.394Z,110.75
2019-03-01T03:23:11.554Z,107.80
2019-03-01T03:25:41.682Z,107.70
2019-03-01T03:28:12.179Z,117.50
2019-03-01T03:30:42.356Z,111.40
2019-03-01T03:33:12.830Z,107.85
2019-03-01T03:35:43.355Z,107.80
2019-03-01T03:38:13.534Z,113.60
2019-03-01T03:40:44.012Z,117.45
2019-03-01T03:43:14.635Z,117.33
2019-03-01T03:45:44.880Z,118.13
2019-03-01T03:48:15.397Z,122.40
2019-03-01T03:50:45.563Z,112.95
2019-03-01T03:53:17.000Z,121.67
2019-03-01T03:55:47.118Z,113.37
2019-03-01T03:58:17.337Z,111.30
2019-03-01T04:00:47.514Z,115.60
2019-03-01T04:03:18.059Z,119.82
2019-03-01T04:05:48.680Z,115.60
2019-03-01T04:08:19.010Z,118.40
2019-03-01T04:10:49.116Z,115.77
2019-03-01T04:13:19.289Z,112.25
2019-03-01T04:15:49.879Z,113.15
2019-03-01T04:18:19.992Z,116.45
2019-03-01T04:20:50.123Z,109.60
2019-03-01T04:23:20.378Z,124.42
2019-03-01T04:25:50.620Z,106.47
2019-03-01T04:28:20.737Z,102.95
2019-03-01T04:30:51.215Z,111.05
2019-03-01T04:33:21.638Z,110.10
2019-03-01T04:35:51.898Z,103.55
2019-03-01T04:38:22.050Z,106.35
2019-03-01T04:40:52.206Z,110.78
2019-03-01T04:43:22.378Z,111.70
2019-03-01T04:45:52.864Z,116.60
2019-03-01T04:48:23.086Z,111.88
2019-03-01T04:50:53.181Z,110.42
2019-03-01T04:53:23.345Z,115.57
2019-03-01T04:55:53.972Z,129.15
2019-03-01T04:58:24.063Z,117.65
2019-03-01T05:00:54.368Z,116.00
2019-03-01T05:03:24.463Z,119.62
2019-03-01T05:05:54.732Z,114.25
2019-03-01T05:08:24.825Z,120.95
2019-03-01T05:10:55.379Z,118.97
2019-03-01T05:13:25.466Z,121.35
2019-03-01T05:15:56.020Z,119.10
2019-03-01T05:18:26.278Z,129.27
2019-03-01T05:20:56.444Z,121.13
2019-03-01T05:23:27.006Z,108.97
2019-03-01T05:25:57.118Z,121.40
2019-03-01T05:28:27.344Z,124.65
2019-03-01T05:30:57.530Z,115.80
2019-03-01T05:33:27.691Z,113.42
2019-03-01T05:35:57.879Z,114.95
2019-03-01T05:38:28.041Z,118.25
2019-03-01T05:40:58.122Z,119.05
2019-03-01T05:43:28.219Z,115.32
2019-03-01T05:45:58.399Z,115.28
2019-03-01T05:48:29.017Z,123.60
2019-03-01T05:50:59.235Z,122.50
2019-03-01T05:53:29.785Z,118.30
2019-03-01T05:55:59.932Z,126.50
2019-03-01T05:58:31.810Z,125.10
2019-03-01T06:01:07.640Z,129.70
2019-03-01T06:03:46.832Z,133.63
2019-03-01T06:06:35.176Z,128.02
2019-03-01T06:09:20.049Z,134.32
2019-03-01T06:12:26.588Z,137.85
2019-03-01T06:15:05.278Z,129.35
2019-03-01T06:17:38.841Z,131.50
2019-03-01T06:20:24.117Z,117.72
2019-03-01T06:23:12.229Z,117.22
2019-03-01T06:25:50.967Z,125.53
2019-03-01T06:28:29.769Z,124.82
2019-03-01T06:31:28.414Z,124.15
2019-03-01T06:34:10.677Z,127.72
2019-03-01T06:36:59.153Z,124.38
2019-03-01T06:39:53.587Z,119.53
2019-03-01T06:42:32.965Z,125.45
2019-03-01T06:45:36.375Z,125.82
2019-03-01T06:48:07.440Z,131.43
2019-03-01T06:50:39.154Z,122.28
2019-03-01T06:53:09.391Z,133.22
2019-03-01T06:55:41.969Z,122.90
2019-03-01T06:58:15.063Z,136.37
2019-03-01T07:00:50.076Z,134.18
2019-03-01T07:03:18.764Z,131.60
2019-03-01T07:05:48.987Z,142.45
2019-03-01T07:08:19.534Z,125.02
2019-03-01T07:10:49.911Z,121.82
2019-03-01T07:13:20.093Z,133.78
2019-03-01T07:15:50.297Z,129.47
2019-03-01T07:18:20.374Z,140.20
2019-03-01T07:20:50.533Z,133.05
2019-03-01T07:23:20.699Z,135.78
2019-03-01T07:25:51.191Z,134.80
2019-03-01T07:28:21.626Z,143.93
2019-03-01T07:30:51.891Z,136.95
2019-03-01T07:33:21.924Z,144.85
2019-03-01T07:35:52.156Z,134.32
2019-03-01T07:38:22.333Z,137.37
2019-03-01T07:40:52.492Z,134.20
2019-03-01T07:43:22.655Z,143.72
2019-03-01T07:45:53.274Z,138.40
2019-03-01T07:48:23.695Z,139.62
2019-03-01T07:50:55.274Z,140.35
2019-03-01T07:53:25.738Z,122.15
2019-03-01T07:55:56.209Z,122.33
2019-03-01T07:58:26.748Z,132.87
2019-03-01T08:00:57.470Z,139.03
2019-03-01T08:03:27.897Z,123.58
2019-03-01T08:05:57.979Z,128.70
2019-03-01T08:08:28.347Z,124.62
2019-03-01T08:11:00.104Z,132.57
2019-03-01T08:13:30.621Z,117.60
2019-03-01T08:16:00.849Z,123.62
2019-03-01T08:18:31.428Z,122.13
2019-03-01T08:21:01.545Z,122.62
2019-03-01T08:23:34.773Z,119.77
2019-03-01T08:26:03.765Z,118.90
2019-03-01T08:28:34.369Z,104.45
2019-03-01T08:31:04.773Z,117.15
2019-03-01T08:33:35.150Z,123.35
2019-03-01T08:36:05.847Z,129.65
2019-03-01T08:38:37.041Z,124.25
2019-03-01T08:41:07.169Z,120.50
2019-03-01T08:43:37.334Z,120.37
2019-03-01T08:46:09.413Z,118.35
2019-03-01T08:48:39.369Z,120.67
2019-03-01T08:51:09.458Z,119.57
2019-03-01T08:53:39.563Z,124.45
2019-03-01T08:56:10.911Z,121.90
2019-03-01T08:58:42.529Z,110.22
2019-03-01T09:01:15.985Z,117.53
2019-03-01T09:03:49.145Z,115.35
2019-03-01T09:06:19.247Z,121.02
2019-03-01T09:08:49.639Z,113.10
2019-03-01T09:11:19.832Z,115.72
2019-03-01T09:13:50.228Z,116.80
2019-03-01T09:16:20.447Z,119.33
2019-03-01T09:18:50.967Z,108.70
2019-03-01T09:21:21.185Z,110.52
2019-03-01T09:23:54.048Z,114.90
2019-03-01T09:26:23.158Z,109.25
2019-03-01T09:28:54.695Z,113.57
2019-03-01T09:31:24.916Z,116.53
2019-03-01T09:33:56.493Z,120.87
2019-03-01T09:36:30.215Z,127.87
2019-03-01T09:39:00.382Z,116.95
2019-03-01T09:41:30.998Z,117.75
2019-03-01T09:44:03.080Z,117.20
2019-03-01T09:46:33.718Z,123.47
2019-03-01T09:49:03.871Z,119.90
2019-03-01T09:51:35.855Z,122.98
2019-03-01T09:54:09.342Z,123.72
2019-03-01T09:56:38.789Z,121.25
2019-03-01T09:59:08.946Z,122.05
2019-03-01T10:01:40.189Z,115.60
2019-03-01T10:04:10.415Z,129.87
2019-03-01T10:06:40.647Z,126.72
2019-03-01T10:09:11.780Z,123.07
2019-03-01T10:11:42.327Z,128.40
2019-03-01T10:14:12.522Z,117.13
2019-03-01T10:16:43.693Z,122.33
2019-03-01T10:19:13.900Z,123.40
2019-03-01T10:21:44.187Z,124.20
2019-03-01T10:24:14.450Z,122.40
2019-03-01T10:26:44.705Z,119.33
2019-03-01T10:29:14.920Z,124.75
2019-03-01T10:31:45.105Z,119.77
2019-03-01T10:34:15.392Z,127.65
2019-03-01T10:36:45.750Z,126.27
2019-03-01T10:39:16.113Z,125.15
2019-03-01T10:41:46.530Z,125.92
2019-03-01T10:44:19.249Z,131.45
2019-03-01T10:46:49.531Z,128.57
2019-03-01T10:49:20.353Z,129.78
2019-03-01T10:51:51.489Z,122.37
2019-03-01T10:54:21.755Z,125.22
2019-03-01T10:56:52.056Z,125.78
2019-03-01T10:59:22.136Z,121.85
2019-03-01T11:01:52.665Z,134.43
2019-03-01T11:04:22.891Z,122.17
2019-03-01T11:06:53.906Z,123.70
2019-03-01T11:09:24.052Z,128.02
2019-03-01T11:11:54.209Z,131.75
2019-03-01T11:14:24.665Z,127.82
2019-03-01T11:16:55.445Z,126.40
2019-03-01T11:19:27.099Z,134.10
2019-03-01T11:21:57.183Z,128.00
2019-03-01T11:24:29.918Z,128.10
2019-03-01T11:27:00.093Z,131.03
2019-03-01T11:29:36.978Z,129.05
2019-03-01T11:32:07.275Z,134.22
2019-03-01T11:34:37.637Z,125.50
2019-03-01T11:37:07.839Z,129.15
2019-03-01T11:39:40.028Z,125.38
2019-03-01T11:42:10.278Z,131.63
2019-03-01T11:44:40.491Z,123.45
2019-03-01T11:47:11.722Z,127.85
2019-03-01T11:49:42.148Z,128.72
2019-03-01T11:52:12.356Z,136.97
2019-03-01T11:54:42.472Z,128.78
2019-03-01T11:57:12.674Z,129.60
2019-03-01T11:59:43.236Z,123.33
2019-03-01T12:02:13.480Z,129.65
2019-03-01T12:04:43.559Z,129.57
2019-03-01T12:07:13.675Z,135.95
2019-03-01T12:09:43.824Z,126.90
2019-03-01T12:12:14.194Z,103.65
2019-03-01T12:14:44.667Z,107.67
2019-03-01T12:17:15.196Z,112.30
2019-03-01T12:19:45.353Z,104.25
2019-03-01T12:22:17.466Z,109.57
2019-03-01T12:24:47.186Z,105.43
2019-03-01T12:27:17.280Z,105.70
2019-03-01T12:29:47.437Z,108.63
2019-03-01T12:32:17.542Z,107.78
2019-03-01T12:34:48.074Z,103.92
2019-03-01T12:37:18.323Z,115.32
2019-03-01T12:39:48.547Z,109.12
2019-03-01T12:42:19.164Z,102.82
2019-03-01T12:44:49.383Z,117.97
2019-03-01T12:47:19.910Z,111.92
2019-03-01T12:49:50.050Z,110.63
2019-03-01T12:52:20.208Z,113.28
2019-03-01T12:54:50.394Z,110.65
2019-03-01T12:57:20.619Z,120.30
2019-03-01T12:59:51.128Z,114.95
2019-03-01T13:02:21.301Z,117.33
2019-03-01T13:04:53.349Z,115.90
2019-03-01T13:07:23.135Z,105.37
2019-03-01T13:10:03.077Z,99.20
2019-03-01T13:12:32.175Z,97.00
2019-03-01T13:15:02.529Z,99.77
2019-03-01T13:17:33.726Z,110.25
2019-03-01T13:20:07.833Z,110.30
2019-03-01T13:22:38.181Z,98.35
2019-03-01T13:25:09.616Z,101.70
2019-03-01T13:27:41.168Z,104.12
2019-03-01T13:30:28.821Z,109.45
2019-03-01T13:33:02.152Z,101.85
2019-03-01T13:35:33.473Z,112.17
2019-03-01T13:38:04.093Z,107.72
2019-03-01T13:40:34.552Z,101.27
2019-03-01T13:43:04.898Z,102.53
2019-03-01T13:45:35.490Z,99.70
2019-03-01T13:48:05.788Z,106.45
2019-03-01T13:50:38.222Z,106.67
2019-03-01T13:53:08.216Z,99.67
2019-03-01T13:55:38.444Z,92.27
2019-03-01T13:58:08.589Z,93.67
2019-03-01T14:00:38.824Z,93.50
2019-03-01T14:03:08.975Z,92.30
2019-03-01T14:05:39.179Z,87.12
2019-03-01T14:08:09.508Z,79.10
2019-03-01T14:10:41.883Z,86.17
2019-03-01T14:13:14.429Z,82.60
2019-03-01T14:15:44.889Z,84.45
2019-03-01T14:18:15.071Z,93.20
2019-03-01T14:20:45.291Z,88.80
2019-03-01T14:23:16.466Z,86.63
2019-03-01T14:25:46.607Z,89.00
2019-03-01T14:28:16.638Z,84.72
2019-03-01T14:30:48.169Z,91.97
2019-03-01T14:33:18.487Z,83.90
2019-03-01T14:35:49.733Z,72.40
2019-03-01T14:38:19.866Z,77.40
2019-03-01T14:40:50.131Z,71.77
2019-03-01T14:43:23.826Z,82.42
2019-03-01T14:45:52.182Z,67.05
2019-03-01T14:48:22.340Z,77.40
2019-03-01T14:50:52.401Z,64.58
2019-03-01T14:53:22.559Z,69.40
2019-03-01T14:55:58.800Z,75.90
2019-03-01T14:58:33.476Z,71.35
2019-03-01T15:01:15.919Z,64.32
2019-03-01T15:03:46.152Z,67.10
2019-03-01T15:06:18.964Z,70.22
2019-03-01T15:08:48.306Z,60.55
2019-03-01T15:11:18.906Z,63.98
2019-03-01T15:13:49.139Z,61.68
2019-03-01T15:16:19.727Z,64.10
2019-03-01T15:18:49.880Z,63.28
2019-03-01T15:21:20.112Z,68.30
2019-03-01T15:23:50.278Z,64.67
2019-03-01T15:26:23.158Z,70.12
2019-03-01T15:28:55.695Z,74.40
2019-03-01T15:31:25.685Z,59.98
2019-03-01T15:33:55.866Z,63.48
2019-03-01T15:36:26.199Z,66.47
2019-03-01T15:38:56.648Z,64.12
2019-03-01T15:41:27.027Z,57.65
2019-03-01T15:43:57.240Z,62.58
2019-03-01T15:46:27.803Z,60.12
2019-03-01T15:48:57.879Z,64.42
2019-03-01T15:51:28.394Z,64.67
2019-03-01T15:54:01.224Z,64.20
2019-03-01T15:56:32.141Z,64.87
2019-03-01T15:59:02.274Z,65.52
2019-03-01T16:01:32.502Z,60.43
2019-03-01T16:04:02.947Z,57.53
2019-03-01T16:06:33.175Z,61.73
2019-03-01T16:09:03.966Z,63.25
2019-03-01T16:11:35.647Z,58.90
2019-03-01T16:14:05.912Z,61.85
2019-03-01T16:16:36.100Z,66.15
2019-03-01T16:19:06.357Z,55.75
2019-03-01T16:21:36.666Z,59.33
2019-03-01T16:24:08.089Z,61.77
2019-03-01T16:26:39.029Z,62.00
2019-03-01T16:29:09.113Z,61.28
2019-03-01T16:31:39.345Z,59.93
2019-03-01T16:34:09.933Z,65.72
2019-03-01T16:36:40.728Z,60.80
2019-03-01T16:39:12.507Z,67.80
2019-03-01T16:41:43.091Z,59.00
2019-03-01T16:44:13.824Z,72.22
2019-03-01T16:46:44.262Z,64.20
2019-03-01T16:49:14.425Z,64.67
2019-03-01T16:51:44.934Z,65.05
2019-03-01T16:54:16.525Z,70.17
2019-03-01T16:56:46.674Z,66.07
2019-03-01T16:59:16.889Z,69.77
2019-03-01T17:01:46.952Z,73.52
2019-03-01T17:04:17.103Z,61.18
2019-03-01T17:06:49.366Z,69.72
2019-03-01T17:09:19.630Z,76.00
2019-03-01T17:11:49.717Z,77.30
2019-03-01T17:14:20.635Z,65.62
2019-03-01T17:16:51.057Z,65.25
2019-03-01T17:19:23.733Z,67.30
2019-03-01T17:21:53.345Z,72.78
2019-03-01T17:24:23.495Z,66.65
2019-03-01T17:26:53.589Z,64.20
2019-03-01T17:29:24.206Z,66.70
2019-03-01T17:31:54.280Z,64.50
2019-03-01T17:34:25.836Z,59.77
2019-03-01T17:36:56.513Z,62.53
2019-03-01T17:39:26.714Z,62.65
2019-03-01T17:41:56.827Z,67.10
2019-03-01T17:44:26.930Z,66.20
2019-03-01T17:46:57.068Z,67.53
2019-03-01T17:49:29.673Z,66.05
2019-03-01T17:51:58.948Z,66.92
2019-03-01T17:54:28.973Z,71.57
2019-03-01T17:56:59.182Z,71.17
2019-03-01T17:59:29.250Z,70.65
2019-03-01T18:01:59.416Z,68.20
2019-03-01T18:04:29.505Z,77.55
2019-03-01T18:06:59.580Z,68.15
2019-03-01T18:09:29.797Z,71.30
2019-03-01T18:12:00.027Z,72.00
2019-03-01T18:14:30.159Z,71.02
2019-03-01T18:17:01.258Z,68.40
2019-03-01T18:19:32.364Z,70.95
2019-03-01T18:22:02.494Z,74.47
2019-03-01T18:24:32.650Z,70.47
2019-03-01T18:27:02.939Z,66.77
2019-03-01T18:29:33.167Z,66.60
2019-03-01T18:32:06.969Z,160.30
2019-03-01T18:34:36.492Z,165.95
2019-03-01T18:37:19.098Z,140.85
2019-03-01T18:39:41.211Z,135.82
2019-03-01T18:42:10.636Z,112.22
2019-03-01T18:44:40.776Z,96.15
2019-03-01T18:47:11.348Z,89.65
2019-03-01T18:49:41.865Z,74.05
2019-03-01T18:52:14.426Z,78.07
2019-03-01T18:54:43.767Z,79.62
2019-03-01T18:57:13.940Z,85.42
2019-03-01T18:59:44.029Z,92.40
2019-03-01T19:02:14.166Z,78.65
2019-03-01T19:04:44.345Z,94.37
2019-03-01T19:07:14.480Z,80.25
2019-03-01T19:09:44.710Z,86.12
2019-03-01T19:12:14.922Z,85.70
2019-03-01T19:14:45.010Z,84.50
2019-03-01T19:17:15.146Z,75.10
2019-03-01T19:19:45.404Z,78.07
2019-03-01T19:22:15.595Z,77.00
2019-03-01T19:24:46.848Z,69.72
2019-03-01T19:27:17.325Z,75.52
2019-03-01T19:29:47.562Z,73.45
2019-03-01T19:32:17.720Z,75.83
2019-03-01T19:34:49.678Z,70.57
2019-03-01T19:37:19.695Z,65.40
2019-03-01T19:39:50.296Z,72.12
2019-03-01T19:42:20.729Z,65.30
2019-03-01T19:44:51.141Z,77.67
2019-03-01T19:47:23.649Z,71.22
2019-03-01T19:49:53.834Z,76.33
2019-03-01T19:52:23.975Z,75.15
2019-03-01T19:54:54.492Z,62.55
2019-03-01T19:57:24.562Z,69.67
2019-03-01T19:59:55.048Z,81.53
2019-03-01T20:02:27.866Z,86.35
2019-03-01T20:04:57.057Z,76.45
2019-03-01T20:07:27.143Z,80.83
2019-03-01T20:09:57.489Z,83.65
2019-03-01T20:12:27.631Z,86.97
2019-03-01T20:14:58.293Z,76.25
2019-03-01T20:17:30.292Z,76.60
2019-03-01T20:20:00.705Z,72.15
2019-03-01T20:22:32.105Z,74.20
2019-03-01T20:25:02.307Z,72.17
2019-03-01T20:27:35.516Z,75.30
2019-03-01T20:30:06.348Z,73.78
2019-03-01T20:32:36.490Z,74.97
2019-03-01T20:35:09.718Z,75.75
2019-03-01T20:40:11.960Z,72.60
2019-03-01T20:42:42.037Z,70.40
2019-03-01T20:45:20.972Z,71.15
2019-03-01T20:47:53.574Z,68.85
2019-03-01T20:50:23.063Z,69.82
2019-03-01T20:52:53.286Z,83.65
2019-03-01T20:55:24.036Z,73.78
2019-03-01T20:57:54.389Z,72.20
2019-03-01T21:00:26.413Z,71.50
2019-03-01T21:02:57.498Z,71.33
2019-03-01T21:05:29.294Z,72.12
2019-03-01T21:07:59.918Z,79.77
2019-03-01T21:10:32.536Z,72.47
2019-03-01T21:13:02.745Z,66.02
2019-03-01T21:15:34.614Z,76.33
2019-03-01T21:18:04.711Z,68.92
2019-03-01T21:20:34.864Z,73.72
2019-03-01T21:23:05.036Z,75.65
2019-03-01T21:25:35.848Z,75.35
2019-03-01T21:28:06.802Z,70.92
2019-03-01T21:30:37.033Z,73.87
2019-03-01T21:33:07.178Z,73.22
2019-03-01T21:35:37.253Z,72.50
2019-03-01T21:38:10.644Z,77.85
2019-03-01T21:40:39.536Z,78.17
2019-03-01T21:43:09.674Z,81.22
2019-03-01T21:45:39.767Z,72.10
2019-03-01T21:48:09.923Z,78.40
2019-03-01T21:50:42.491Z,77.70
2019-03-01T21:53:12.346Z,76.77
2019-03-01T21:55:42.427Z,75.67
2019-03-01T21:58:12.497Z,81.15
2019-03-01T22:00:42.735Z,87.65
2019-03-01T22:03:12.824Z,86.45
2019-03-01T22:05:45.291Z,88.92
2019-03-01T22:08:14.737Z,72.10
2019-03-01T22:10:45.014Z,76.10
2019-03-01T22:13:15.520Z,73.50
2019-03-01T22:15:46.704Z,76.07
2019-03-01T22:18:16.924Z,78.47
2019-03-01T22:20:47.074Z,69.75
2019-03-01T22:23:17.221Z,82.97
2019-03-01T22:25:47.447Z,78.52
2019-03-01T22:28:17.555Z,78.33
2019-03-01T22:30:47.626Z,73.47
2019-03-01T22:33:20.830Z,71.55
2019-03-01T22:35:49.503Z,72.90
2019-03-01T22:38:19.693Z,69.53
2019-03-01T22:40:49.829Z,83.72
2019-03-01T22:43:22.507Z,80.32
2019-03-01T22:45:52.873Z,77.85
2019-03-01T22:48:23.076Z,73.80
2019-03-01T22:50:53.219Z,73.92
2019-03-01T22:53:23.675Z,76.80
2019-03-01T22:55:54.211Z,79.60
2019-03-01T22:58:25.150Z,79.90
2019-03-01T23:01:00.366Z,79.15
2019-03-01T23:03:31.321Z,85.47
2019-03-01T23:06:01.572Z,83.05
2019-03-01T23:08:35.198Z,79.10
2019-03-01T23:11:03.536Z,83.60
2019-03-01T23:13:33.602Z,78.02
2019-03-01T23:16:03.856Z,81.92
2019-03-01T23:18:37.519Z,80.92
2019-03-01T23:21:06.170Z,77.08
2019-03-01T23:23:36.341Z,81.63
2019-03-01T23:26:06.482Z,89.50
2019-03-01T23:28:37.019Z,85.50
2019-03-01T23:31:07.262Z,89.70
2019-03-01T23:33:37.460Z,83.25
2019-03-01T23:36:07.623Z,83.87
2019-03-01T23:38:37.702Z,91.72
2019-03-01T23:41:11.304Z,86.30
2019-03-01T23:43:40.086Z,84.15
2019-03-01T23:46:10.199Z,93.52
2019-03-01T23:48:40.735Z,95.57
2019-03-01T23:51:11.667Z,89.97
2019-03-01T23:53:42.104Z,96.28
2019-03-01T23:56:12.271Z,89.13
2019-03-01T23:58:42.366Z,100.00
